sensor_id;sensor_type;location;lat;lon;timestamp;P1;durP1;ratioP1;P2;durP2;ratioP2
22164;SDS011;11248;52.512;13.520;2022-11-20T00:00:01;15.35;;;9.80;;
22164;SDS011;11248;52.512;13.520;2022-11-20T00:02:26;15.52;;;9.90;;
22164;SDS011;11248;52.512;13.520;2022-11-20T00:04:52;19.60;;;10.77;;
22164;SDS011;11248;52.512;13.520;2022-11-20T00:07:18;15.23;;;9.43;;
22164;SDS011;11248;52.512;13.520;2022-11-20T00:09:44;15.63;;;10.52;;
22164;SDS011;11248;52.512;13.520;2022-11-20T00:12:10;16.77;;;9.88;;
22164;SDS011;11248;52.512;13.520;2022-11-20T00:14:36;16.05;;;9.77;;
22164;SDS011;11248;52.512;13.520;2022-11-20T00:17:02;15.73;;;9.35;;
22164;SDS011;11248;52.512;13.520;2022-11-20T00:19:28;13.35;;;9.30;;
22164;SDS011;11248;52.512;13.520;2022-11-20T00:21:54;17.55;;;9.57;;
22164;SDS011;11248;52.512;13.520;2022-11-20T00:24:20;13.20;;;8.55;;
22164;SDS011;11248;52.512;13.520;2022-11-20T00:26:46;13.82;;;8.27;;
22164;SDS011;11248;52.512;13.520;2022-11-20T00:29:12;15.57;;;8.90;;
22164;SDS011;11248;52.512;13.520;2022-11-20T00:31:38;17.83;;;8.98;;
22164;SDS011;11248;52.512;13.520;2022-11-20T00:34:04;13.85;;;8.13;;
22164;SDS011;11248;52.512;13.520;2022-11-20T00:36:31;13.77;;;8.88;;
22164;SDS011;11248;52.512;13.520;2022-11-20T00:38:58;15.70;;;9.13;;
22164;SDS011;11248;52.512;13.520;2022-11-20T00:41:24;22.05;;;9.63;;
22164;SDS011;11248;52.512;13.520;2022-11-20T00:43:54;16.42;;;8.77;;
22164;SDS011;11248;52.512;13.520;2022-11-20T00:46:21;16.30;;;9.50;;
22164;SDS011;11248;52.512;13.520;2022-11-20T00:48:47;16.00;;;9.15;;
22164;SDS011;11248;52.512;13.520;2022-11-20T00:51:14;14.52;;;9.45;;
22164;SDS011;11248;52.512;13.520;2022-11-20T00:53:40;14.20;;;8.93;;
22164;SDS011;11248;52.512;13.520;2022-11-20T00:56:09;14.05;;;8.98;;
22164;SDS011;11248;52.512;13.520;2022-11-20T00:58:36;15.80;;;9.45;;
22164;SDS011;11248;52.512;13.520;2022-11-20T01:01:06;15.48;;;9.30;;
22164;SDS011;11248;52.512;13.520;2022-11-20T01:03:33;16.00;;;9.90;;
22164;SDS011;11248;52.512;13.520;2022-11-20T01:06:00;16.15;;;9.77;;
22164;SDS011;11248;52.512;13.520;2022-11-20T01:08:28;16.08;;;8.90;;
22164;SDS011;11248;52.512;13.520;2022-11-20T01:10:58;15.43;;;8.88;;
22164;SDS011;11248;52.512;13.520;2022-11-20T01:13:24;14.40;;;8.80;;
22164;SDS011;11248;52.512;13.520;2022-11-20T01:18:31;16.73;;;9.98;;
22164;SDS011;11248;52.512;13.520;2022-11-20T01:21:04;13.90;;;9.43;;
22164;SDS011;11248;52.512;13.520;2022-11-20T01:23:34;14.02;;;9.02;;
22164;SDS011;11248;52.512;13.520;2022-11-20T01:26:01;14.27;;;8.98;;
22164;SDS011;11248;52.512;13.520;2022-11-20T01:28:28;13.55;;;9.18;;
22164;SDS011;11248;52.512;13.520;2022-11-20T01:30:54;14.18;;;8.52;;
22164;SDS011;11248;52.512;13.520;2022-11-20T01:33:20;14.98;;;8.68;;
22164;SDS011;11248;52.512;13.520;2022-11-20T01:35:46;15.85;;;8.88;;
22164;SDS011;11248;52.512;13.520;2022-11-20T01:38:12;14.98;;;9.68;;
22164;SDS011;11248;52.512;13.520;2022-11-20T01:40:37;13.48;;;8.52;;
22164;SDS011;11248;52.512;13.520;2022-11-20T01:43:37;14.38;;;8.75;;
22164;SDS011;11248;52.512;13.520;2022-11-20T01:46:00;15.00;;;9.90;;
22164;SDS011;11248;52.512;13.520;2022-11-20T01:48:32;15.65;;;9.18;;
22164;SDS011;11248;52.512;13.520;2022-11-20T01:50:59;13.05;;;8.32;;
22164;SDS011;11248;52.512;13.520;2022-11-20T01:53:27;14.10;;;8.13;;
22164;SDS011;11248;52.512;13.520;2022-11-20T01:55:56;15.02;;;9.02;;
22164;SDS011;11248;52.512;13.520;2022-11-20T01:58:24;16.67;;;8.95;;
22164;SDS011;11248;52.512;13.520;2022-11-20T02:00:52;15.40;;;9.55;;
22164;SDS011;11248;52.512;13.520;2022-11-20T02:03:19;15.63;;;9.18;;
22164;SDS011;11248;52.512;13.520;2022-11-20T02:06:00;13.75;;;8.43;;
22164;SDS011;11248;52.512;13.520;2022-11-20T02:08:28;13.90;;;9.10;;
22164;SDS011;11248;52.512;13.520;2022-11-20T02:10:55;15.65;;;9.75;;
22164;SDS011;11248;52.512;13.520;2022-11-20T02:13:20;14.70;;;9.82;;
22164;SDS011;11248;52.512;13.520;2022-11-20T02:18:31;15.13;;;9.23;;
22164;SDS011;11248;52.512;13.520;2022-11-20T02:21:02;14.90;;;9.40;;
22164;SDS011;11248;52.512;13.520;2022-11-20T02:23:32;14.30;;;8.98;;
22164;SDS011;11248;52.512;13.520;2022-11-20T02:25:59;16.13;;;9.63;;
22164;SDS011;11248;52.512;13.520;2022-11-20T02:28:26;14.90;;;9.20;;
22164;SDS011;11248;52.512;13.520;2022-11-20T02:30:53;15.70;;;9.90;;
22164;SDS011;11248;52.512;13.520;2022-11-20T02:33:18;14.25;;;9.07;;
22164;SDS011;11248;52.512;13.520;2022-11-20T02:35:45;19.15;;;10.13;;
22164;SDS011;11248;52.512;13.520;2022-11-20T02:38:12;18.88;;;10.75;;
22164;SDS011;11248;52.512;13.520;2022-11-20T02:40:38;17.38;;;10.30;;
22164;SDS011;11248;52.512;13.520;2022-11-20T02:43:04;17.77;;;10.23;;
22164;SDS011;11248;52.512;13.520;2022-11-20T02:45:30;15.23;;;9.77;;
22164;SDS011;11248;52.512;13.520;2022-11-20T02:47:56;18.13;;;10.63;;
22164;SDS011;11248;52.512;13.520;2022-11-20T02:50:22;15.73;;;9.43;;
22164;SDS011;11248;52.512;13.520;2022-11-20T02:52:48;15.77;;;10.25;;
22164;SDS011;11248;52.512;13.520;2022-11-20T02:55:14;15.10;;;9.80;;
22164;SDS011;11248;52.512;13.520;2022-11-20T02:57:40;15.27;;;8.73;;
22164;SDS011;11248;52.512;13.520;2022-11-20T03:00:06;16.10;;;9.55;;
22164;SDS011;11248;52.512;13.520;2022-11-20T03:02:32;14.52;;;8.85;;
22164;SDS011;11248;52.512;13.520;2022-11-20T03:04:58;14.73;;;9.57;;
22164;SDS011;11248;52.512;13.520;2022-11-20T03:07:24;16.92;;;9.68;;
22164;SDS011;11248;52.512;13.520;2022-11-20T03:09:50;16.00;;;9.48;;
22164;SDS011;11248;52.512;13.520;2022-11-20T03:12:16;18.17;;;10.13;;
22164;SDS011;11248;52.512;13.520;2022-11-20T03:14:42;16.35;;;10.40;;
22164;SDS011;11248;52.512;13.520;2022-11-20T03:17:08;17.48;;;9.65;;
22164;SDS011;11248;52.512;13.520;2022-11-20T03:19:34;18.30;;;10.30;;
22164;SDS011;11248;52.512;13.520;2022-11-20T03:22:00;16.17;;;10.73;;
22164;SDS011;11248;52.512;13.520;2022-11-20T03:24:26;17.42;;;10.13;;
22164;SDS011;11248;52.512;13.520;2022-11-20T03:26:52;16.45;;;10.35;;
22164;SDS011;11248;52.512;13.520;2022-11-20T03:29:18;19.13;;;10.30;;
22164;SDS011;11248;52.512;13.520;2022-11-20T03:31:44;16.45;;;9.82;;
22164;SDS011;11248;52.512;13.520;2022-11-20T03:34:10;19.98;;;10.07;;
22164;SDS011;11248;52.512;13.520;2022-11-20T03:36:37;16.73;;;9.40;;
22164;SDS011;11248;52.512;13.520;2022-11-20T03:39:04;17.02;;;10.80;;
22164;SDS011;11248;52.512;13.520;2022-11-20T03:41:30;17.08;;;9.35;;
22164;SDS011;11248;52.512;13.520;2022-11-20T03:43:58;18.42;;;10.15;;
22164;SDS011;11248;52.512;13.520;2022-11-20T03:46:24;17.40;;;9.55;;
22164;SDS011;11248;52.512;13.520;2022-11-20T03:48:50;17.27;;;9.73;;
22164;SDS011;11248;52.512;13.520;2022-11-20T03:51:23;19.40;;;10.65;;
22164;SDS011;11248;52.512;13.520;2022-11-20T03:53:50;16.52;;;10.18;;
22164;SDS011;11248;52.512;13.520;2022-11-20T03:56:17;15.95;;;9.73;;
22164;SDS011;11248;52.512;13.520;2022-11-20T03:58:43;18.02;;;9.25;;
22164;SDS011;11248;52.512;13.520;2022-11-20T04:01:13;15.80;;;10.82;;
22164;SDS011;11248;52.512;13.520;2022-11-20T04:03:40;14.77;;;8.73;;
22164;SDS011;11248;52.512;13.520;2022-11-20T04:06:08;17.40;;;9.82;;
22164;SDS011;11248;52.512;13.520;2022-11-20T04:08:35;14.45;;;9.38;;
22164;SDS011;11248;52.512;13.520;2022-11-20T04:13:39;16.88;;;10.55;;
22164;SDS011;11248;52.512;13.520;2022-11-20T04:16:05;16.00;;;9.93;;
22164;SDS011;11248;52.512;13.520;2022-11-20T04:18:31;16.52;;;10.38;;
22164;SDS011;11248;52.512;13.520;2022-11-20T04:20:58;16.42;;;10.63;;
22164;SDS011;11248;52.512;13.520;2022-11-20T04:23:24;16.33;;;9.98;;
22164;SDS011;11248;52.512;13.520;2022-11-20T04:25:50;16.27;;;10.07;;
22164;SDS011;11248;52.512;13.520;2022-11-20T04:28:15;18.52;;;10.82;;
22164;SDS011;11248;52.512;13.520;2022-11-20T04:30:41;13.27;;;9.40;;
22164;SDS011;11248;52.512;13.520;2022-11-20T04:33:07;17.80;;;10.55;;
22164;SDS011;11248;52.512;13.520;2022-11-20T04:35:34;19.40;;;11.27;;
22164;SDS011;11248;52.512;13.520;2022-11-20T04:38:00;17.27;;;10.77;;
22164;SDS011;11248;52.512;13.520;2022-11-20T04:40:27;18.42;;;10.63;;
22164;SDS011;11248;52.512;13.520;2022-11-20T04:42:52;19.88;;;11.20;;
22164;SDS011;11248;52.512;13.520;2022-11-20T04:45:19;17.35;;;10.05;;
22164;SDS011;11248;52.512;13.520;2022-11-20T04:47:45;15.82;;;10.00;;
22164;SDS011;11248;52.512;13.520;2022-11-20T04:50:11;17.75;;;10.20;;
22164;SDS011;11248;52.512;13.520;2022-11-20T04:52:37;18.60;;;10.30;;
22164;SDS011;11248;52.512;13.520;2022-11-20T04:55:03;17.65;;;10.18;;
22164;SDS011;11248;52.512;13.520;2022-11-20T04:57:29;16.05;;;9.90;;
22164;SDS011;11248;52.512;13.520;2022-11-20T04:59:55;16.83;;;10.43;;
22164;SDS011;11248;52.512;13.520;2022-11-20T05:02:21;16.92;;;10.65;;
22164;SDS011;11248;52.512;13.520;2022-11-20T05:04:47;17.02;;;10.55;;
22164;SDS011;11248;52.512;13.520;2022-11-20T05:07:13;18.98;;;10.63;;
22164;SDS011;11248;52.512;13.520;2022-11-20T05:09:39;16.08;;;10.15;;
22164;SDS011;11248;52.512;13.520;2022-11-20T05:12:06;16.08;;;10.40;;
22164;SDS011;11248;52.512;13.520;2022-11-20T05:14:32;16.58;;;10.48;;
22164;SDS011;11248;52.512;13.520;2022-11-20T05:16:58;19.02;;;10.82;;
22164;SDS011;11248;52.512;13.520;2022-11-20T05:19:24;18.55;;;10.55;;
22164;SDS011;11248;52.512;13.520;2022-11-20T05:21:50;15.95;;;10.30;;
22164;SDS011;11248;52.512;13.520;2022-11-20T05:24:16;17.40;;;10.68;;
22164;SDS011;11248;52.512;13.520;2022-11-20T05:26:42;19.98;;;10.40;;
22164;SDS011;11248;52.512;13.520;2022-11-20T05:29:11;16.58;;;10.00;;
22164;SDS011;11248;52.512;13.520;2022-11-20T05:31:38;17.35;;;10.70;;
22164;SDS011;11248;52.512;13.520;2022-11-20T05:34:05;16.58;;;10.57;;
22164;SDS011;11248;52.512;13.520;2022-11-20T05:36:31;16.30;;;10.10;;
22164;SDS011;11248;52.512;13.520;2022-11-20T05:38:57;19.00;;;11.52;;
22164;SDS011;11248;52.512;13.520;2022-11-20T05:41:23;19.35;;;11.23;;
22164;SDS011;11248;52.512;13.520;2022-11-20T05:43:49;20.58;;;11.55;;
22164;SDS011;11248;52.512;13.520;2022-11-20T05:46:16;17.17;;;11.23;;
22164;SDS011;11248;52.512;13.520;2022-11-20T05:48:42;14.80;;;9.90;;
22164;SDS011;11248;52.512;13.520;2022-11-20T05:51:11;18.52;;;10.90;;
22164;SDS011;11248;52.512;13.520;2022-11-20T05:53:37;18.38;;;10.45;;
22164;SDS011;11248;52.512;13.520;2022-11-20T05:56:07;16.17;;;10.27;;
22164;SDS011;11248;52.512;13.520;2022-11-20T05:58:35;15.95;;;10.68;;
22164;SDS011;11248;52.512;13.520;2022-11-20T06:01:12;18.45;;;9.82;;
22164;SDS011;11248;52.512;13.520;2022-11-20T06:03:38;16.63;;;9.68;;
22164;SDS011;11248;52.512;13.520;2022-11-20T06:06:05;17.90;;;10.55;;
22164;SDS011;11248;52.512;13.520;2022-11-20T06:08:31;17.05;;;10.00;;
22164;SDS011;11248;52.512;13.520;2022-11-20T06:10:58;16.15;;;9.95;;
22164;SDS011;11248;52.512;13.520;2022-11-20T06:13:24;16.83;;;10.55;;
22164;SDS011;11248;52.512;13.520;2022-11-20T06:15:50;16.27;;;9.80;;
22164;SDS011;11248;52.512;13.520;2022-11-20T06:18:16;17.77;;;11.23;;
22164;SDS011;11248;52.512;13.520;2022-11-20T06:20:42;16.17;;;9.75;;
22164;SDS011;11248;52.512;13.520;2022-11-20T06:23:08;17.67;;;10.20;;
22164;SDS011;11248;52.512;13.520;2022-11-20T06:25:37;18.42;;;10.68;;
22164;SDS011;11248;52.512;13.520;2022-11-20T06:28:03;16.60;;;10.32;;
22164;SDS011;11248;52.512;13.520;2022-11-20T06:30:29;17.63;;;10.40;;
22164;SDS011;11248;52.512;13.520;2022-11-20T06:32:55;17.27;;;9.75;;
22164;SDS011;11248;52.512;13.520;2022-11-20T06:35:21;17.42;;;10.48;;
22164;SDS011;11248;52.512;13.520;2022-11-20T06:37:46;18.38;;;11.35;;
22164;SDS011;11248;52.512;13.520;2022-11-20T06:40:12;18.63;;;11.07;;
22164;SDS011;11248;52.512;13.520;2022-11-20T06:42:38;19.13;;;11.52;;
22164;SDS011;11248;52.512;13.520;2022-11-20T06:45:04;16.58;;;10.98;;
22164;SDS011;11248;52.512;13.520;2022-11-20T06:47:30;16.63;;;10.73;;
22164;SDS011;11248;52.512;13.520;2022-11-20T06:49:56;16.60;;;10.98;;
22164;SDS011;11248;52.512;13.520;2022-11-20T06:52:22;17.38;;;11.07;;
22164;SDS011;11248;52.512;13.520;2022-11-20T06:54:48;15.82;;;9.73;;
22164;SDS011;11248;52.512;13.520;2022-11-20T06:57:14;17.58;;;10.68;;
22164;SDS011;11248;52.512;13.520;2022-11-20T06:59:40;18.77;;;10.50;;
22164;SDS011;11248;52.512;13.520;2022-11-20T07:02:08;16.73;;;10.82;;
22164;SDS011;11248;52.512;13.520;2022-11-20T07:04:34;18.60;;;10.80;;
22164;SDS011;11248;52.512;13.520;2022-11-20T07:07:00;16.92;;;10.13;;
22164;SDS011;11248;52.512;13.520;2022-11-20T07:09:26;17.77;;;11.00;;
22164;SDS011;11248;52.512;13.520;2022-11-20T07:11:52;16.52;;;10.57;;
22164;SDS011;11248;52.512;13.520;2022-11-20T07:14:18;18.90;;;10.93;;
22164;SDS011;11248;52.512;13.520;2022-11-20T07:16:44;18.42;;;10.55;;
22164;SDS011;11248;52.512;13.520;2022-11-20T07:19:10;18.52;;;10.10;;
22164;SDS011;11248;52.512;13.520;2022-11-20T07:21:36;18.95;;;11.18;;
22164;SDS011;11248;52.512;13.520;2022-11-20T07:24:01;20.95;;;11.35;;
22164;SDS011;11248;52.512;13.520;2022-11-20T07:26:27;17.65;;;9.85;;
22164;SDS011;11248;52.512;13.520;2022-11-20T07:28:53;19.10;;;11.70;;
22164;SDS011;11248;52.512;13.520;2022-11-20T07:31:19;17.95;;;10.43;;
22164;SDS011;11248;52.512;13.520;2022-11-20T07:33:45;15.98;;;9.77;;
22164;SDS011;11248;52.512;13.520;2022-11-20T07:36:11;17.63;;;10.40;;
22164;SDS011;11248;52.512;13.520;2022-11-20T07:38:37;17.17;;;10.35;;
22164;SDS011;11248;52.512;13.520;2022-11-20T07:41:03;17.95;;;10.82;;
22164;SDS011;11248;52.512;13.520;2022-11-20T07:43:29;17.48;;;11.43;;
22164;SDS011;11248;52.512;13.520;2022-11-20T07:45:56;18.80;;;10.90;;
22164;SDS011;11248;52.512;13.520;2022-11-20T07:48:22;18.92;;;11.25;;
22164;SDS011;11248;52.512;13.520;2022-11-20T07:50:48;18.95;;;11.05;;
22164;SDS011;11248;52.512;13.520;2022-11-20T07:53:14;17.33;;;9.93;;
22164;SDS011;11248;52.512;13.520;2022-11-20T07:55:45;19.75;;;11.18;;
22164;SDS011;11248;52.512;13.520;2022-11-20T07:58:11;17.80;;;11.57;;
22164;SDS011;11248;52.512;13.520;2022-11-20T08:00:38;18.63;;;11.55;;
22164;SDS011;11248;52.512;13.520;2022-11-20T08:03:04;20.75;;;11.52;;
22164;SDS011;11248;52.512;13.520;2022-11-20T08:05:30;17.35;;;10.65;;
22164;SDS011;11248;52.512;13.520;2022-11-20T08:07:56;19.10;;;10.55;;
22164;SDS011;11248;52.512;13.520;2022-11-20T08:10:22;18.40;;;10.63;;
22164;SDS011;11248;52.512;13.520;2022-11-20T08:12:49;17.80;;;10.48;;
22164;SDS011;11248;52.512;13.520;2022-11-20T08:15:34;18.25;;;10.98;;
22164;SDS011;11248;52.512;13.520;2022-11-20T08:18:05;20.40;;;11.95;;
22164;SDS011;11248;52.512;13.520;2022-11-20T08:20:31;17.33;;;10.80;;
22164;SDS011;11248;52.512;13.520;2022-11-20T08:22:58;21.65;;;11.65;;
22164;SDS011;11248;52.512;13.520;2022-11-20T08:25:25;19.27;;;11.27;;
22164;SDS011;11248;52.512;13.520;2022-11-20T08:27:51;18.88;;;11.35;;
22164;SDS011;11248;52.512;13.520;2022-11-20T08:30:16;21.42;;;12.48;;
22164;SDS011;11248;52.512;13.520;2022-11-20T08:32:42;20.30;;;11.32;;
22164;SDS011;11248;52.512;13.520;2022-11-20T08:35:08;20.17;;;11.40;;
22164;SDS011;11248;52.512;13.520;2022-11-20T08:37:34;19.40;;;12.40;;
22164;SDS011;11248;52.512;13.520;2022-11-20T08:40:02;18.85;;;11.60;;
22164;SDS011;11248;52.512;13.520;2022-11-20T08:42:28;18.42;;;11.07;;
22164;SDS011;11248;52.512;13.520;2022-11-20T08:44:54;20.35;;;11.93;;
22164;SDS011;11248;52.512;13.520;2022-11-20T08:47:20;17.92;;;11.25;;
22164;SDS011;11248;52.512;13.520;2022-11-20T08:49:46;21.27;;;12.25;;
22164;SDS011;11248;52.512;13.520;2022-11-20T08:52:11;20.23;;;11.30;;
22164;SDS011;11248;52.512;13.520;2022-11-20T08:54:37;19.48;;;11.50;;
22164;SDS011;11248;52.512;13.520;2022-11-20T08:57:03;18.92;;;11.07;;
22164;SDS011;11248;52.512;13.520;2022-11-20T08:59:29;18.77;;;10.88;;
22164;SDS011;11248;52.512;13.520;2022-11-20T09:01:55;17.67;;;11.02;;
22164;SDS011;11248;52.512;13.520;2022-11-20T09:04:21;15.32;;;10.18;;
22164;SDS011;11248;52.512;13.520;2022-11-20T09:06:47;17.02;;;10.35;;
22164;SDS011;11248;52.512;13.520;2022-11-20T09:09:15;18.90;;;11.32;;
22164;SDS011;11248;52.512;13.520;2022-11-20T09:11:41;18.35;;;10.65;;
22164;SDS011;11248;52.512;13.520;2022-11-20T09:14:07;18.85;;;11.88;;
22164;SDS011;11248;52.512;13.520;2022-11-20T09:16:33;20.35;;;11.88;;
22164;SDS011;11248;52.512;13.520;2022-11-20T09:18:59;17.00;;;11.25;;
22164;SDS011;11248;52.512;13.520;2022-11-20T09:21:25;18.88;;;11.60;;
22164;SDS011;11248;52.512;13.520;2022-11-20T09:23:51;20.05;;;11.52;;
22164;SDS011;11248;52.512;13.520;2022-11-20T09:26:17;18.58;;;11.13;;
22164;SDS011;11248;52.512;13.520;2022-11-20T09:28:44;19.48;;;10.95;;
22164;SDS011;11248;52.512;13.520;2022-11-20T09:31:17;23.23;;;11.88;;
22164;SDS011;11248;52.512;13.520;2022-11-20T09:33:45;18.85;;;11.20;;
22164;SDS011;11248;52.512;13.520;2022-11-20T09:36:11;16.23;;;10.25;;
22164;SDS011;11248;52.512;13.520;2022-11-20T09:38:36;18.35;;;11.25;;
22164;SDS011;11248;52.512;13.520;2022-11-20T09:41:03;19.13;;;10.50;;
22164;SDS011;11248;52.512;13.520;2022-11-20T09:43:45;23.30;;;12.00;;
22164;SDS011;11248;52.512;13.520;2022-11-20T09:54:20;18.10;;;11.23;;
22164;SDS011;11248;52.512;13.520;2022-11-20T09:56:51;17.55;;;11.00;;
22164;SDS011;11248;52.512;13.520;2022-11-20T10:02:25;16.60;;;10.40;;
22164;SDS011;11248;52.512;13.520;2022-11-20T10:04:55;20.02;;;11.40;;
22164;SDS011;11248;52.512;13.520;2022-11-20T10:07:23;23.83;;;11.82;;
22164;SDS011;11248;52.512;13.520;2022-11-20T10:09:51;19.75;;;11.45;;
22164;SDS011;11248;52.512;13.520;2022-11-20T10:12:20;18.50;;;11.23;;
22164;SDS011;11248;52.512;13.520;2022-11-20T10:14:52;17.10;;;10.88;;
22164;SDS011;11248;52.512;13.520;2022-11-20T10:25:22;21.77;;;11.73;;
22164;SDS011;11248;52.512;13.520;2022-11-20T10:30:36;20.73;;;11.43;;
22164;SDS011;11248;52.512;13.520;2022-11-20T10:33:04;18.50;;;11.32;;
22164;SDS011;11248;52.512;13.520;2022-11-20T10:35:42;19.85;;;10.65;;
22164;SDS011;11248;52.512;13.520;2022-11-20T10:38:12;21.08;;;11.48;;
22164;SDS011;11248;52.512;13.520;2022-11-20T10:40:42;18.65;;;11.70;;
22164;SDS011;11248;52.512;13.520;2022-11-20T10:43:11;23.38;;;11.63;;
22164;SDS011;11248;52.512;13.520;2022-11-20T10:45:46;19.88;;;10.95;;
22164;SDS011;11248;52.512;13.520;2022-11-20T10:48:21;17.48;;;10.73;;
22164;SDS011;11248;52.512;13.520;2022-11-20T10:53:31;18.75;;;11.50;;
22164;SDS011;11248;52.512;13.520;2022-11-20T10:56:05;18.42;;;11.63;;
22164;SDS011;11248;52.512;13.520;2022-11-20T10:58:37;19.80;;;11.15;;
22164;SDS011;11248;52.512;13.520;2022-11-20T11:01:14;20.50;;;11.80;;
22164;SDS011;11248;52.512;13.520;2022-11-20T11:03:40;19.50;;;12.07;;
22164;SDS011;11248;52.512;13.520;2022-11-20T11:06:10;18.50;;;10.77;;
22164;SDS011;11248;52.512;13.520;2022-11-20T11:08:39;15.82;;;11.38;;
22164;SDS011;11248;52.512;13.520;2022-11-20T11:11:21;20.17;;;11.60;;
22164;SDS011;11248;52.512;13.520;2022-11-20T11:13:47;19.13;;;11.90;;
22164;SDS011;11248;52.512;13.520;2022-11-20T11:16:20;19.75;;;11.40;;
22164;SDS011;11248;52.512;13.520;2022-11-20T11:18:46;23.67;;;12.90;;
22164;SDS011;11248;52.512;13.520;2022-11-20T11:21:12;19.25;;;11.43;;
22164;SDS011;11248;52.512;13.520;2022-11-20T11:23:39;17.67;;;11.13;;
22164;SDS011;11248;52.512;13.520;2022-11-20T11:26:07;18.25;;;11.00;;
22164;SDS011;11248;52.512;13.520;2022-11-20T11:28:33;17.73;;;11.20;;
22164;SDS011;11248;52.512;13.520;2022-11-20T11:30:59;20.05;;;11.80;;
22164;SDS011;11248;52.512;13.520;2022-11-20T11:33:26;17.80;;;11.57;;
22164;SDS011;11248;52.512;13.520;2022-11-20T11:35:53;17.88;;;10.90;;
22164;SDS011;11248;52.512;13.520;2022-11-20T11:38:29;16.38;;;10.38;;
22164;SDS011;11248;52.512;13.520;2022-11-20T11:40:56;15.57;;;9.88;;
22164;SDS011;11248;52.512;13.520;2022-11-20T11:43:24;19.83;;;11.93;;
22164;SDS011;11248;52.512;13.520;2022-11-20T11:48:55;17.27;;;10.30;;
22164;SDS011;11248;52.512;13.520;2022-11-20T11:51:21;15.35;;;9.93;;
22164;SDS011;11248;52.512;13.520;2022-11-20T11:53:47;18.38;;;10.70;;
22164;SDS011;11248;52.512;13.520;2022-11-20T11:56:13;20.23;;;10.65;;
22164;SDS011;11248;52.512;13.520;2022-11-20T12:04:04;15.55;;;10.00;;
22164;SDS011;11248;52.512;13.520;2022-11-20T12:06:30;17.70;;;9.82;;
22164;SDS011;11248;52.512;13.520;2022-11-20T12:09:05;17.42;;;10.40;;
22164;SDS011;11248;52.512;13.520;2022-11-20T12:11:37;20.55;;;10.70;;
22164;SDS011;11248;52.512;13.520;2022-11-20T12:14:16;15.07;;;9.82;;
22164;SDS011;11248;52.512;13.520;2022-11-20T12:16:44;15.93;;;10.25;;
22164;SDS011;11248;52.512;13.520;2022-11-20T12:19:11;17.63;;;10.38;;
22164;SDS011;11248;52.512;13.520;2022-11-20T12:21:54;17.88;;;10.15;;
22164;SDS011;11248;52.512;13.520;2022-11-20T12:24:27;16.77;;;10.30;;
22164;SDS011;11248;52.512;13.520;2022-11-20T12:29:50;18.00;;;10.70;;
22164;SDS011;11248;52.512;13.520;2022-11-20T12:39:55;15.55;;;9.70;;
22164;SDS011;11248;52.512;13.520;2022-11-20T12:42:29;18.40;;;10.40;;
22164;SDS011;11248;52.512;13.520;2022-11-20T12:45:31;18.15;;;10.50;;
22164;SDS011;11248;52.512;13.520;2022-11-20T12:56:17;18.52;;;10.50;;
22164;SDS011;11248;52.512;13.520;2022-11-20T12:58:55;16.40;;;9.32;;
22164;SDS011;11248;52.512;13.520;2022-11-20T13:09:15;27.08;;;16.02;;
22164;SDS011;11248;52.512;13.520;2022-11-20T13:11:58;19.83;;;10.10;;
22164;SDS011;11248;52.512;13.520;2022-11-20T13:17:30;14.40;;;9.43;;
22164;SDS011;11248;52.512;13.520;2022-11-20T13:19:52;16.08;;;8.48;;
22164;SDS011;11248;52.512;13.520;2022-11-20T13:22:25;14.65;;;8.63;;
22164;SDS011;11248;52.512;13.520;2022-11-20T13:24:52;11.75;;;7.30;;
22164;SDS011;11248;52.512;13.520;2022-11-20T13:27:19;11.52;;;7.53;;
22164;SDS011;11248;52.512;13.520;2022-11-20T13:29:46;10.65;;;6.70;;
22164;SDS011;11248;52.512;13.520;2022-11-20T13:32:16;10.77;;;6.85;;
22164;SDS011;11248;52.512;13.520;2022-11-20T13:34:52;8.85;;;5.95;;
22164;SDS011;11248;52.512;13.520;2022-11-20T13:37:37;19.80;;;15.55;;
22164;SDS011;11248;52.512;13.520;2022-11-20T13:42:37;8.68;;;6.00;;
22164;SDS011;11248;52.512;13.520;2022-11-20T13:45:08;10.13;;;6.85;;
22164;SDS011;11248;52.512;13.520;2022-11-20T13:47:34;10.32;;;6.28;;
22164;SDS011;11248;52.512;13.520;2022-11-20T13:50:03;12.52;;;7.20;;
22164;SDS011;11248;52.512;13.520;2022-11-20T14:00:19;9.70;;;6.25;;
22164;SDS011;11248;52.512;13.520;2022-11-20T14:03:05;8.52;;;5.80;;
22164;SDS011;11248;52.512;13.520;2022-11-20T14:05:39;10.00;;;6.60;;
22164;SDS011;11248;52.512;13.520;2022-11-20T14:08:11;8.93;;;5.82;;
22164;SDS011;11248;52.512;13.520;2022-11-20T14:10:39;9.90;;;6.35;;
22164;SDS011;11248;52.512;13.520;2022-11-20T14:13:15;10.80;;;6.28;;
22164;SDS011;11248;52.512;13.520;2022-11-20T14:18:47;12.18;;;6.45;;
22164;SDS011;11248;52.512;13.520;2022-11-20T14:21:23;11.60;;;6.25;;
22164;SDS011;11248;52.512;13.520;2022-11-20T14:23:51;10.75;;;6.57;;
22164;SDS011;11248;52.512;13.520;2022-11-20T14:26:17;9.35;;;6.03;;
22164;SDS011;11248;52.512;13.520;2022-11-20T14:28:47;10.20;;;5.43;;
22164;SDS011;11248;52.512;13.520;2022-11-20T14:31:17;9.23;;;6.13;;
22164;SDS011;11248;52.512;13.520;2022-11-20T14:33:44;11.02;;;6.45;;
22164;SDS011;11248;52.512;13.520;2022-11-20T14:36:16;9.55;;;5.82;;
22164;SDS011;11248;52.512;13.520;2022-11-20T14:38:42;9.60;;;5.63;;
22164;SDS011;11248;52.512;13.520;2022-11-20T14:41:14;8.82;;;5.63;;
22164;SDS011;11248;52.512;13.520;2022-11-20T14:43:44;9.82;;;6.75;;
22164;SDS011;11248;52.512;13.520;2022-11-20T14:46:10;10.63;;;6.57;;
22164;SDS011;11248;52.512;13.520;2022-11-20T14:48:38;12.40;;;7.18;;
22164;SDS011;11248;52.512;13.520;2022-11-20T14:51:05;9.75;;;6.20;;
22164;SDS011;11248;52.512;13.520;2022-11-20T14:53:31;9.82;;;6.45;;
22164;SDS011;11248;52.512;13.520;2022-11-20T14:55:58;10.23;;;6.13;;
22164;SDS011;11248;52.512;13.520;2022-11-20T14:58:25;11.27;;;6.70;;
22164;SDS011;11248;52.512;13.520;2022-11-20T15:03:21;10.75;;;7.07;;
22164;SDS011;11248;52.512;13.520;2022-11-20T15:05:47;11.50;;;6.97;;
22164;SDS011;11248;52.512;13.520;2022-11-20T15:08:14;11.20;;;7.07;;
22164;SDS011;11248;52.512;13.520;2022-11-20T15:10:50;10.85;;;6.72;;
22164;SDS011;11248;52.512;13.520;2022-11-20T15:13:23;9.40;;;6.18;;
22164;SDS011;11248;52.512;13.520;2022-11-20T15:15:51;9.07;;;6.10;;
22164;SDS011;11248;52.512;13.520;2022-11-20T15:18:18;9.75;;;6.75;;
22164;SDS011;11248;52.512;13.520;2022-11-20T15:20:45;11.00;;;6.88;;
22164;SDS011;11248;52.512;13.520;2022-11-20T15:23:12;12.40;;;7.63;;
22164;SDS011;11248;52.512;13.520;2022-11-20T15:25:43;11.25;;;6.53;;
22164;SDS011;11248;52.512;13.520;2022-11-20T15:28:12;13.73;;;7.10;;
22164;SDS011;11248;52.512;13.520;2022-11-20T15:30:40;11.68;;;6.47;;
22164;SDS011;11248;52.512;13.520;2022-11-20T15:33:08;12.90;;;6.88;;
22164;SDS011;11248;52.512;13.520;2022-11-20T15:35:34;11.55;;;7.38;;
22164;SDS011;11248;52.512;13.520;2022-11-20T15:38:19;10.15;;;7.00;;
22164;SDS011;11248;52.512;13.520;2022-11-20T15:40:45;11.88;;;7.47;;
22164;SDS011;11248;52.512;13.520;2022-11-20T15:43:11;12.23;;;6.85;;
22164;SDS011;11248;52.512;13.520;2022-11-20T15:45:47;11.68;;;7.45;;